Time;durP1;ratioP1;P1;durP2;ratioP2;P2;SDS_P1;SDS_P2;PMS_P1;PMS_P2;Temp;Humidity;BMP_temperature;BMP_pressure;BME280_temperature;BME280_humidity;BME280_pressure;Samples;Min_cycle;Max_cycle;Signal;HPM_P1;HPM_P2
2024/01/01 00:02:08;;;;;;;;;80.67;60.67;;;;;-143.90;100.00;75614.66;4883381;28;102472;-75
2024/01/01 00:04:35;;;;;;;;;68.33;53.33;;;;;-143.90;100.00;75614.66;4876392;28;104002;-75
2024/01/01 00:07:02;;;;;;;;;65.33;50.00;;;;;-143.90;100.00;75620.88;4880720;28;104140;-75
2024/01/01 00:09:29;;;;;;;;;71.00;56.33;;;;;-143.90;100.00;75635.34;4880309;28;101940;-74
2024/01/01 00:11:56;;;;;;;;;70.00;51.33;;;;;-143.90;100.00;75639.47;4888179;28;102019;-77
2024/01/01 00:14:23;;;;;;;;;63.33;47.33;;;;;-143.90;100.00;75645.69;4883697;28;112677;-76
2024/01/01 00:16:49;;;;;;;;;59.00;46.33;;;;;-143.90;100.00;75651.88;4881902;28;102328;-77
2024/01/01 00:19:17;;;;;;;;;59.00;44.00;;;;;-143.90;100.00;75660.16;4873392;28;102131;-75
2024/01/01 00:21:44;;;;;;;;;58.67;42.67;;;;;-143.90;100.00;75660.16;4877860;28;104559;-75
2024/01/01 00:24:10;;;;;;;;;43.33;34.33;;;;;-143.90;100.00;75664.28;4876474;28;104660;-75
2024/01/01 00:26:37;;;;;;;;;45.33;40.33;;;;;-143.90;100.00;75660.16;4882692;28;103085;-75
2024/01/01 00:29:05;;;;;;;;;65.67;51.33;;;;;-143.90;100.00;75656.03;4872042;28;102765;-75
2024/01/01 00:31:32;;;;;;;;;35.00;31.00;;;;;-143.90;100.00;75656.03;4883000;28;102574;-74
2024/01/01 00:33:59;;;;;;;;;40.33;35.33;;;;;-143.90;100.00;75660.16;4864494;28;104074;-75
2024/01/01 00:36:26;;;;;;;;;55.67;43.00;;;;;-143.90;100.00;75660.16;4895211;28;103775;-77
2024/01/01 00:38:53;;;;;;;;;36.00;28.33;;;;;-143.90;100.00;75658.09;4883298;28;103948;-76
2024/01/01 00:41:20;;;;;;;;;72.00;54.67;;;;;-143.90;100.00;75664.28;4874563;28;102567;-76
2024/01/01 00:43:48;;;;;;;;;74.33;60.00;;;;;-143.90;100.00;75664.28;4876191;28;104331;-76
2024/01/01 00:46:15;;;;;;;;;78.67;59.00;;;;;-143.90;100.00;75660.16;4877871;28;102054;-73
2024/01/01 00:48:41;;;;;;;;;66.67;48.00;;;;;-143.90;100.00;75658.09;4878040;28;102440;-77
2024/01/01 00:51:08;;;;;;;;;71.00;54.67;;;;;-143.90;100.00;75649.81;4873155;28;102440;-75
2024/01/01 00:53:35;;;;;;;;;70.00;52.33;;;;;-143.90;100.00;75651.88;4877564;28;104019;-74
2024/01/01 00:56:02;;;;;;;;;64.00;51.33;;;;;-143.90;100.00;75639.47;4878060;28;102698;-77
2024/01/01 00:58:29;;;;;;;;;76.25;60.00;;;;;-143.90;100.00;75633.28;4881017;28;102314;-73
2024/01/01 01:00:58;;;;;;;;;85.00;60.00;;;;;-143.90;100.00;75639.47;4878971;28;101969;-75
2024/01/01 01:03:25;;;;;;;;;70.33;54.33;;;;;-143.90;100.00;75631.22;4866322;28;108706;-75
2024/01/01 01:05:52;;;;;;;;;70.00;48.33;;;;;-143.90;100.00;75635.34;4874462;28;102844;-75
2024/01/01 01:08:18;;;;;;;;;62.33;50.67;;;;;-143.90;100.00;75627.06;4880311;28;102655;-75
2024/01/01 01:10:45;;;;;;;;;62.67;46.67;;;;;-143.90;100.00;75620.88;4888902;28;102949;-75
2024/01/01 01:13:12;;;;;;;;;47.33;40.00;;;;;-143.90;100.00;75618.81;4867580;28;103943;-74
2024/01/01 01:15:39;;;;;;;;;49.33;39.67;;;;;-143.90;100.00;75612.59;4883721;28;103771;-75
2024/01/01 01:18:06;;;;;;;;;45.67;39.00;;;;;-143.90;100.00;75610.53;4880454;28;102974;-75
2024/01/01 01:20:33;;;;;;;;;66.00;44.67;;;;;-143.90;100.00;75610.53;4881856;28;102503;-74
2024/01/01 01:23:00;;;;;;;;;88.33;63.67;;;;;-143.90;100.00;75620.88;4883295;28;104050;-74
2024/01/01 01:25:27;;;;;;;;;103.75;76.25;;;;;-143.90;100.00;75627.06;4876381;28;102375;-75
2024/01/01 01:27:53;;;;;;;;;108.50;91.00;;;;;-143.90;100.00;75629.13;4881661;28;102483;-77
2024/01/01 01:30:20;;;;;;;;;96.75;68.50;;;;;-143.90;100.00;75631.22;4881460;28;102271;-76
2024/01/01 01:32:47;;;;;;;;;93.75;65.00;;;;;-143.90;100.00;75635.34;4879340;28;106032;-76
2024/01/01 01:35:14;;;;;;;;;79.50;58.75;;;;;-143.90;100.00;75635.34;4866406;28;102464;-77
2024/01/01 01:37:41;;;;;;;;;85.75;64.00;;;;;-143.90;100.00;75649.81;4878397;28;102624;-75
2024/01/01 01:40:08;;;;;;;;;96.25;69.50;;;;;-143.90;100.00;75672.56;4877258;28;102524;-76
2024/01/01 01:42:35;;;;;;;;;91.00;66.00;;;;;-143.90;100.00;75684.97;4878856;28;104050;-76
2024/01/01 01:45:02;;;;;;;;;90.25;66.75;;;;;-143.90;100.00;75691.16;4881777;28;102522;-75
2024/01/01 01:47:29;;;;;;;;;77.00;62.50;;;;;-143.90;100.00;75687.03;4862513;28;103270;-75
2024/01/01 01:49:57;;;;;;;;;67.33;51.00;;;;;-143.90;100.00;75697.38;4870941;28;102032;-76
2024/01/01 01:52:24;;;;;;;;;56.67;45.67;;;;;-143.90;100.00;75695.31;4873208;28;104220;-76
2024/01/01 01:54:55;;;;;;;;;75.25;56.75;;;;;-143.90;100.00;75705.66;4874393;28;102693;-74
2024/01/01 01:57:23;;;;;;;;;86.50;65.50;;;;;-143.90;100.00;75730.47;4862917;28;108162;-76
2024/01/01 01:59:50;;;;;;;;;78.75;59.50;;;;;-143.90;100.00;75742.88;4875320;28;102181;-76
2024/01/01 02:02:20;;;;;;;;;84.75;62.75;;;;;-143.90;100.00;75738.72;4880415;28;103936;-76
2024/01/01 02:04:47;;;;;;;;;85.00;64.25;;;;;-143.90;100.00;75742.88;4856931;28;104364;-75
2024/01/01 02:07:14;;;;;;;;;73.00;57.25;;;;;-143.90;100.00;75749.06;4877843;28;102141;-75
2024/01/01 02:09:41;;;;;;;;;94.50;74.00;;;;;-143.90;100.00;75755.28;4870638;28;102656;-76
2024/01/01 02:12:08;;;;;;;;;84.75;62.00;;;;;-143.90;100.00;75755.28;4877625;28;104151;-75
2024/01/01 02:14:36;;;;;;;;;70.67;55.33;;;;;-143.90;100.00;75751.13;4877376;28;102622;-74
2024/01/01 02:17:03;;;;;;;;;77.67;55.67;;;;;-143.90;100.00;75755.28;4871599;28;103363;-75
2024/01/01 02:19:30;;;;;;;;;57.67;44.33;;;;;-143.90;100.00;75757.34;4863606;28;102575;-74
2024/01/01 02:21:57;;;;;;;;;41.00;38.67;;;;;-143.90;100.00;75749.06;4873213;28;104030;-75
2024/01/01 02:24:24;;;;;;;;;51.00;38.00;;;;;-143.90;100.00;75751.13;4879987;28;102407;-74
2024/01/01 02:26:50;;;;;;;;;45.33;37.67;;;;;-143.90;100.00;75742.88;4879181;28;102185;-75
2024/01/01 02:29:18;;;;;;;;;50.67;41.33;;;;;-143.90;100.00;75738.72;4874809;28;102585;-75
2024/01/01 02:31:46;;;;;;;;;36.33;30.33;;;;;-143.90;100.00;75728.38;4866599;28;108749;-76
2024/01/01 02:34:13;;;;;;;;;50.00;35.67;;;;;-143.90;100.00;75718.06;4880481;28;104830;-75
2024/01/01 02:36:40;;;;;;;;;36.67;29.00;;;;;-143.90;100.00;75707.72;4878289;28;104836;-75
2024/01/01 02:39:07;;;;;;;;;29.33;23.00;;;;;-143.90;100.00;75697.38;4873015;28;102595;-75
2024/01/01 02:41:35;;;;;;;;;44.00;35.00;;;;;-143.90;100.00;75705.66;4863268;28;104084;-75
2024/01/01 02:44:03;;;;;;;;;53.33;44.00;;;;;-143.90;100.00;75687.03;4877368;28;102333;-75
2024/01/01 02:46:30;;;;;;;;;68.00;54.00;;;;;-143.90;100.00;75674.63;4877983;28;103559;-74
2024/01/01 02:48:56;;;;;;;;;71.33;54.67;;;;;-143.90;100.00;75649.81;4878279;28;102007;-75
2024/01/01 02:51:23;;;;;;;;;58.33;44.33;;;;;-143.90;100.00;75645.69;4868957;28;104041;-74
2024/01/01 02:53:50;;;;;;;;;69.00;52.00;;;;;-143.90;100.00;75625.00;4876002;28;102314;-73
2024/01/01 02:56:23;;;;;;;;;60.00;44.33;;;;;-143.90;100.00;75610.53;4884250;28;102140;-75
2024/01/01 02:58:52;;;;;;;;;41.67;35.67;;;;;-143.90;100.00;75600.19;4877533;28;102113;-75
2024/01/01 03:01:19;;;;;;;;;55.00;38.00;;;;;-143.90;100.00;75591.94;4876025;28;103999;-74
2024/01/01 03:03:46;;;;;;;;;56.00;41.33;;;;;-143.90;100.00;75589.84;4877655;28;102434;-76
2024/01/01 03:06:17;;;;;;;;;32.67;27.67;;;;;-143.90;100.00;75583.66;4884859;28;104016;-76
2024/01/01 03:08:43;;;;;;;;;40.00;35.33;;;;;-143.90;100.00;75573.31;4884954;28;103925;-75
2024/01/01 03:11:10;;;;;;;;;47.00;34.33;;;;;-143.90;100.00;75560.91;4879061;28;104169;-74
2024/01/01 03:13:37;;;;;;;;;44.33;33.00;;;;;-143.90;100.00;75554.72;4871068;28;102721;-74
2024/01/01 03:16:04;;;;;;;;;37.00;35.00;;;;;-143.90;100.00;75548.50;4864239;28;102134;-75
2024/01/01 03:18:30;;;;;;;;;48.33;42.67;;;;;-143.90;100.00;75536.09;4868941;28;103179;-76
2024/01/01 03:20:57;;;;;;;;;43.33;37.67;;;;;-143.90;100.00;75531.97;4877355;28;104474;-75
2024/01/01 03:23:24;;;;;;;;;58.33;43.67;;;;;-143.90;100.00;75519.56;4869245;28;102478;-73
2024/01/01 03:25:51;;;;;;;;;44.67;33.33;;;;;-143.90;100.00;75511.28;4879799;28;101890;-75
2024/01/01 03:28:17;;;;;;;;;74.33;56.00;;;;;-143.90;100.00;75503.03;4891997;28;103944;-74
2024/01/01 03:30:44;;;;;;;;;57.67;45.67;;;;;-143.90;100.00;75492.69;4880873;28;104188;-74
2024/01/01 03:33:11;;;;;;;;;86.67;65.00;;;;;-143.90;100.00;75498.88;4883387;28;103818;-74
2024/01/01 03:35:38;;;;;;;;;89.00;66.75;;;;;-143.90;100.00;75484.41;4870668;28;105286;-75
2024/01/01 03:38:04;;;;;;;;;77.00;54.00;;;;;-143.90;100.00;75476.13;4883183;28;104231;-75
2024/01/01 03:40:32;;;;;;;;;77.00;58.33;;;;;-143.90;100.00;75476.13;4877744;28;104052;-75
2024/01/01 03:43:00;;;;;;;;;83.67;62.00;;;;;-143.90;100.00;75478.22;4882253;28;102741;-75
2024/01/01 03:45:27;;;;;;;;;74.00;56.00;;;;;-143.90;100.00;75490.63;4874699;28;102466;-75
2024/01/01 03:47:54;;;;;;;;;97.00;71.00;;;;;-143.90;100.00;75498.88;4888228;28;103963;-75
2024/01/01 03:50:21;;;;;;;;;91.25;66.50;;;;;-143.90;100.00;75494.75;4889421;28;104231;-75
2024/01/01 03:52:48;;;;;;;;;90.25;68.00;;;;;-143.90;100.00;75505.09;4875328;28;102386;-75
2024/01/01 03:55:15;;;;;;;;;103.50;81.25;;;;;-143.90;100.00;75515.41;4879867;28;102219;-76
2024/01/01 03:57:43;;;;;;;;;105.75;88.75;;;;;-143.90;100.00;75521.63;4873754;28;102332;-77
2024/01/01 04:00:11;;;;;;;;;104.75;82.00;;;;;-143.90;100.00;75523.69;4876478;28;104081;-74
2024/01/01 04:02:42;;;;;;;;;94.75;68.25;;;;;-143.90;100.00;75494.75;4882397;28;102376;-75
2024/01/01 04:05:10;;;;;;;;;85.00;60.33;;;;;-143.90;100.00;75478.22;4874947;28;102508;-74
2024/01/01 04:07:37;;;;;;;;;80.00;58.67;;;;;-143.90;100.00;75469.94;4868867;28;101976;-75
2024/01/01 04:10:05;;;;;;;;;83.25;62.50;;;;;-143.90;100.00;75465.81;4882069;28;104337;-75
2024/01/01 04:12:33;;;;;;;;;82.67;61.00;;;;;-143.90;100.00;75455.47;4881801;28;102407;-74
2024/01/01 04:14:59;;;;;;;;;74.67;55.33;;;;;-143.90;100.00;75447.19;4882344;28;102013;-77
2024/01/01 04:17:26;;;;;;;;;74.75;52.75;;;;;-143.90;100.00;75428.59;4878743;28;103067;-74
2024/01/01 04:19:53;;;;;;;;;96.00;71.50;;;;;-143.90;100.00;75416.19;4876289;28;104026;-76
2024/01/01 04:22:21;;;;;;;;;93.67;68.33;;;;;-143.90;100.00;75405.84;4880655;28;102427;-74
2024/01/01 04:24:52;;;;;;;;;85.00;60.67;;;;;-143.90;100.00;75403.78;4883370;28;102355;-78
2024/01/01 04:27:19;;;;;;;;;67.67;52.00;;;;;-143.90;100.00;75401.72;4887775;28;102146;-77
2024/01/01 04:29:46;;;;;;;;;60.00;48.67;;;;;-143.90;100.00;75391.38;4874546;28;104189;-76
2024/01/01 04:32:13;;;;;;;;;63.00;48.33;;;;;-143.90;100.00;75391.38;4882305;28;102322;-77
2024/01/01 04:34:39;;;;;;;;;62.00;44.00;;;;;-143.90;100.00;75387.22;4883955;28;102703;-78
2024/01/01 04:37:06;;;;;;;;;66.00;48.33;;;;;-143.90;100.00;75374.84;4884973;28;104062;-75
2024/01/01 04:39:33;;;;;;;;;56.33;44.00;;;;;-143.90;100.00;75370.69;4867945;28;104141;-74
2024/01/01 04:41:59;;;;;;;;;61.00;42.00;;;;;-143.90;100.00;75372.75;4886193;28;102046;-75
2024/01/01 04:44:26;;;;;;;;;64.33;50.00;;;;;-143.90;100.00;75372.75;4876291;28;103417;-75
2024/01/01 04:46:53;;;;;;;;;76.00;57.67;;;;;-143.90;100.00;75389.31;4885590;28;102521;-75
2024/01/01 04:49:19;;;;;;;;;72.33;55.33;;;;;-143.90;100.00;75389.31;4881110;28;108746;-75
2024/01/01 04:51:46;;;;;;;;;62.33;50.00;;;;;-143.90;100.00;75391.38;4864283;28;102343;-74
2024/01/01 04:54:13;;;;;;;;;66.67;52.33;;;;;-143.90;100.00;75395.50;4882617;28;102285;-78
2024/01/01 04:56:39;;;;;;;;;73.00;52.00;;;;;-143.90;100.00;75393.44;4862919;28;102211;-74
2024/01/01 04:59:06;;;;;;;;;77.67;56.67;;;;;-143.90;100.00;75395.50;4885494;28;104233;-74
2024/01/01 05:01:33;;;;;;;;;80.00;62.67;;;;;-143.90;100.00;75395.50;4870465;28;102310;-73
2024/01/01 05:04:00;;;;;;;;;63.67;47.00;;;;;-143.90;100.00;75389.31;4882601;28;102841;-76
2024/01/01 05:06:27;;;;;;;;;64.33;49.00;;;;;-143.90;100.00;75378.97;4881724;28;102587;-74
2024/01/01 05:08:54;;;;;;;;;50.33;41.33;;;;;-143.90;100.00;75368.63;4882153;28;104009;-75
2024/01/01 05:11:21;;;;;;;;;45.67;41.00;;;;;-143.90;100.00;75354.16;4881244;28;104858;-74
2024/01/01 05:13:48;;;;;;;;;46.25;34.00;;;;;-143.90;100.00;75341.75;4869503;28;105085;-77
2024/01/01 05:16:14;;;;;;;;;44.00;39.00;;;;;-143.90;100.00;75329.34;4893049;28;104354;-76
2024/01/01 05:18:41;;;;;;;;;58.00;44.00;;;;;-143.90;100.00;75327.28;4875997;28;104159;-76
2024/01/01 05:21:08;;;;;;;;;44.67;38.33;;;;;-143.90;100.00;75321.06;4875403;28;102291;-76
2024/01/01 05:23:34;;;;;;;;;59.67;42.00;;;;;-143.90;100.00;75327.28;4859415;28;102225;-76
2024/01/01 05:26:01;;;;;;;;;65.33;45.00;;;;;-143.90;100.00;75331.41;4882250;28;101977;-76
2024/01/01 05:28:28;;;;;;;;;50.33;40.67;;;;;-143.90;100.00;75329.34;4876923;28;105723;-74
2024/01/01 05:30:55;;;;;;;;;41.75;32.50;;;;;-143.90;100.00;75327.28;4881097;28;102524;-74
2024/01/01 05:33:22;;;;;;;;;32.25;26.50;;;;;-143.90;100.00;75325.22;4884412;28;102601;-76
2024/01/01 05:35:49;;;;;;;;;32.00;29.25;;;;;-143.90;100.00;75331.41;4868112;28;102529;-75
2024/01/01 05:38:17;;;;;;;;;26.00;18.00;;;;;-143.90;100.00;75325.22;4875677;28;104050;-75
2024/01/01 05:40:45;;;;;;;;;24.25;19.00;;;;;-143.90;100.00;75329.34;4875454;28;102514;-74
2024/01/01 05:43:13;;;;;;;;;23.00;18.25;;;;;-143.90;100.00;75319.00;4881145;28;104246;-75
2024/01/01 05:45:40;;;;;;;;;19.75;16.25;;;;;-143.90;100.00;75316.94;4863996;28;102708;-74
2024/01/01 05:48:07;;;;;;;;;16.00;12.50;;;;;-143.90;100.00;75327.28;4873285;28;104202;-75
2024/01/01 05:50:47;;;;;;;;;11.00;9.25;;;;;-143.90;100.00;75325.22;4880449;28;102421;-75
2024/01/01 05:53:14;;;;;;;;;17.00;14.25;;;;;-143.90;100.00;75329.34;4877217;28;102174;-75
2024/01/01 05:55:41;;;;;;;;;20.75;15.25;;;;;-143.90;100.00;75341.75;4869985;28;102016;-75
2024/01/01 05:58:07;;;;;;;;;16.00;13.75;;;;;-143.90;100.00;75337.63;4879791;28;104141;-75
2024/01/01 06:00:36;;;;;;;;;20.00;17.00;;;;;-143.90;100.00;75345.88;4880668;28;102486;-74
2024/01/01 06:03:04;;;;;;;;;19.50;16.00;;;;;-143.90;100.00;75345.88;4874687;28;102472;-76
2024/01/01 06:05:35;;;;;;;;;24.00;20.75;;;;;-143.90;100.00;75341.75;4875059;28;104849;-73
2024/01/01 06:08:05;;;;;;;;;17.00;14.50;;;;;-143.90;100.00;75345.88;4880740;28;104043;-76
2024/01/01 06:10:33;;;;;;;;;26.25;23.00;;;;;-143.90;100.00;75350.03;4880121;28;102245;-74
2024/01/01 06:12:59;;;;;;;;;20.25;19.25;;;;;-143.90;100.00;75354.16;4880833;28;102551;-75
2024/01/01 06:15:27;;;;;;;;;16.25;16.25;;;;;-143.90;100.00;75358.28;4876349;28;104117;-74
2024/01/01 06:17:54;;;;;;;;;11.00;10.25;;;;;-143.90;100.00;75362.44;4846147;28;1260568;-74
2024/01/01 06:20:21;;;;;;;;;16.75;13.00;;;;;-143.90;100.00;75360.34;4888758;28;102272;-76
2024/01/01 06:22:48;;;;;;;;;16.25;11.00;;;;;-143.90;100.00;75362.44;4886174;28;102214;-74
2024/01/01 06:25:14;;;;;;;;;15.75;11.50;;;;;-143.90;100.00;75364.50;4887325;28;105062;-74
2024/01/01 06:27:41;;;;;;;;;15.00;11.00;;;;;-143.90;100.00;75362.44;4846869;28;104417;-74
2024/01/01 06:30:08;;;;;;;;;19.75;15.25;;;;;-143.90;100.00;75362.44;4894471;28;103480;-77
2024/01/01 06:32:34;;;;;;;;;14.00;10.25;;;;;-143.90;100.00;75360.34;4902938;28;102371;-74
2024/01/01 06:35:01;;;;;;;;;11.00;11.00;;;;;-143.90;100.00;75364.50;4903483;28;101741;-74
2024/01/01 06:37:28;;;;;;;;;19.50;15.75;;;;;-143.90;100.00;75366.56;4905949;28;103113;-75
2024/01/01 06:39:54;;;;;;;;;24.25;21.75;;;;;-143.90;100.00;75370.69;4894135;28;104765;-73
2024/01/01 06:42:21;;;;;;;;;18.25;16.75;;;;;-143.90;100.00;75370.69;4901055;28;103595;-74
2024/01/01 06:44:48;;;;;;;;;28.75;23.00;;;;;-143.90;100.00;75372.75;4899167;28;102672;-75
2024/01/01 06:47:14;;;;;;;;;33.00;27.50;;;;;-143.90;100.00;75370.69;4893797;28;104008;-74
2024/01/01 06:49:41;;;;;;;;;36.00;29.00;;;;;-143.90;100.00;75374.84;4888414;28;102329;-75
2024/01/01 06:52:08;;;;;;;;;25.50;22.50;;;;;-143.90;100.00;75374.84;4886007;28;104518;-75
2024/01/01 06:54:38;;;;;;;;;37.75;30.50;;;;;-143.90;100.00;75370.69;4884488;28;102374;-75
2024/01/01 06:57:05;;;;;;;;;36.25;32.00;;;;;-143.90;100.00;75372.75;4883429;28;103822;-76
2024/01/01 06:59:32;;;;;;;;;34.25;27.00;;;;;-143.90;100.00;75370.69;4883088;28;102208;-76
2024/01/01 07:01:59;;;;;;;;;42.75;34.00;;;;;-143.90;100.00;75364.50;4879886;28;102415;-75
2024/01/01 07:04:25;;;;;;;;;36.50;28.25;;;;;-143.90;100.00;75370.69;4883758;28;103420;-75
2024/01/01 07:06:52;;;;;;;;;50.33;40.00;;;;;-143.90;100.00;75383.09;4873818;28;103973;-76
2024/01/01 07:09:19;;;;;;;;;50.25;36.75;;;;;-143.90;100.00;75381.03;4886154;28;102675;-76
2024/01/01 07:11:45;;;;;;;;;41.67;32.33;;;;;-143.90;100.00;75383.09;4875762;28;104262;-75
2024/01/01 07:14:12;;;;;;;;;46.00;38.00;;;;;-143.90;100.00;75389.31;4886947;28;102184;-75
2024/01/01 07:16:39;;;;;;;;;46.75;37.75;;;;;-143.90;100.00;75387.22;4883213;28;103979;-76
2024/01/01 07:19:07;;;;;;;;;38.33;33.33;;;;;-143.90;100.00;75395.50;4882710;28;102776;-75
2024/01/01 07:21:34;;;;;;;;;45.00;38.33;;;;;-143.90;100.00;75407.91;4871387;28;102161;-74
2024/01/01 07:24:00;;;;;;;;;43.33;37.33;;;;;-143.90;100.00;75401.72;4886222;28;104313;-75
2024/01/01 07:26:27;;;;;;;;;43.67;37.67;;;;;-143.90;100.00;75399.63;4885747;28;104131;-74
2024/01/01 07:28:54;;;;;;;;;42.00;34.33;;;;;-143.90;100.00;75395.50;4887119;28;102245;-75
2024/01/01 07:31:21;;;;;;;;;35.75;34.00;;;;;-143.90;100.00;75397.56;4889997;28;103537;-74
2024/01/01 07:33:49;;;;;;;;;42.25;31.00;;;;;-143.90;100.00;75397.56;4857582;28;102565;-74
2024/01/01 07:36:15;;;;;;;;;36.00;27.50;;;;;-143.90;100.00;75403.78;4885334;28;104002;-74
2024/01/01 07:38:42;;;;;;;;;37.25;24.50;;;;;-143.90;100.00;75399.63;4885247;28;102353;-74
2024/01/01 07:41:09;;;;;;;;;33.25;27.50;;;;;-143.90;100.00;75395.50;4880207;28;102306;-75
2024/01/01 07:43:36;;;;;;;;;29.50;25.75;;;;;-143.90;100.00;75401.72;4874468;28;102323;-75
2024/01/01 07:46:03;;;;;;;;;41.00;32.00;;;;;-143.90;100.00;75403.78;4886963;28;103950;-74
2024/01/01 07:48:29;;;;;;;;;32.50;27.25;;;;;-143.90;100.00;75399.63;4886600;28;102404;-74
2024/01/01 07:50:56;;;;;;;;;49.00;41.67;;;;;-143.90;100.00;75401.72;4868704;28;102378;-74
2024/01/01 07:53:23;;;;;;;;;70.67;53.00;;;;;-143.90;100.00;75416.19;4889927;28;101933;-75
2024/01/01 07:55:50;;;;;;;;;58.00;41.67;;;;;-143.90;100.00;75418.25;4868372;28;103829;-75
2024/01/01 07:58:16;;;;;;;;;43.67;35.00;;;;;-143.90;100.00;75420.31;4889611;28;102735;-75
2024/01/01 08:00:43;;;;;;;;;34.75;30.25;;;;;-143.90;100.00;75424.44;4886631;28;102558;-74
2024/01/01 08:03:09;;;;;;;;;37.50;34.50;;;;;-143.90;100.00;75420.31;4884610;28;102095;-75
2024/01/01 08:05:36;;;;;;;;;34.75;28.00;;;;;-143.90;100.00;75412.03;4874679;28;103952;-74
2024/01/01 08:08:04;;;;;;;;;25.00;20.25;;;;;-143.90;100.00;75399.63;4884308;28;102207;-74
2024/01/01 08:10:30;;;;;;;;;27.00;24.00;;;;;-143.90;100.00;75405.84;4886292;28;102024;-75
2024/01/01 08:12:57;;;;;;;;;25.75;20.00;;;;;-143.90;100.00;75395.50;4880746;28;101986;-76
2024/01/01 08:15:24;;;;;;;;;22.00;20.25;;;;;-143.90;100.00;75412.03;4877512;28;104286;-75
2024/01/01 08:17:51;;;;;;;;;22.50;18.25;;;;;-143.90;100.00;75428.59;4871534;28;102377;-75
2024/01/01 08:20:19;;;;;;;;;16.75;14.25;;;;;-143.90;100.00;75428.59;4882723;28;102758;-75
2024/01/01 08:22:47;;;;;;;;;21.75;17.75;;;;;-143.90;100.00;75432.72;4882212;28;101911;-75
2024/01/01 08:25:14;;;;;;;;;15.50;13.25;;;;;-143.90;100.00;75426.50;4861763;28;104030;-75
2024/01/01 08:27:40;;;;;;;;;17.75;14.00;;;;;-143.90;100.00;75424.44;4870856;28;104003;-75
2024/01/01 08:30:08;;;;;;;;;14.75;12.00;;;;;-143.90;100.00;75428.59;4872809;28;102657;-77
2024/01/01 08:32:34;;;;;;;;;14.50;12.25;;;;;-143.90;100.00;75418.25;4862331;28;103264;-77
2024/01/01 08:35:01;;;;;;;;;11.00;11.00;;;;;-143.90;100.00;75430.66;4859094;28;104005;-75
2024/01/01 08:37:28;;;;;;;;;11.00;11.00;;;;;-143.90;100.00;75436.84;4882101;28;103375;-74
2024/01/01 08:39:55;;;;;;;;;14.00;12.50;;;;;-143.90;100.00;75441.00;4855063;28;102629;-76
2024/01/01 08:42:22;;;;;;;;;12.25;9.50;;;;;-143.90;100.00;75451.31;4874303;28;103465;-76
2024/01/01 08:44:48;;;;;;;;;7.00;6.50;;;;;-143.90;100.00;75451.31;4888802;28;104206;-75
2024/01/01 08:47:18;;;;;;;;;7.75;6.50;;;;;-143.90;100.00;75465.81;4878596;28;105161;-76
2024/01/01 08:49:44;;;;;;;;;4.50;4.00;;;;;-143.90;100.00;75480.28;4859099;28;102198;-76
2024/01/01 08:52:11;;;;;;;;;7.50;7.00;;;;;-143.90;100.00;75474.06;4878598;28;103578;-75
2024/01/01 08:54:38;;;;;;;;;10.50;10.00;;;;;-143.90;100.00;75472.00;4862594;28;104062;-75
2024/01/01 08:57:04;;;;;;;;;10.00;8.50;;;;;-143.90;100.00;75469.94;4857921;28;103688;-75
2024/01/01 08:59:31;;;;;;;;;11.00;10.00;;;;;-143.90;100.00;75490.63;4870281;28;103231;-74
2024/01/01 09:01:58;;;;;;;;;10.00;9.00;;;;;-143.90;100.00;75488.53;4856380;28;103265;-76
2024/01/01 09:04:24;;;;;;;;;10.50;9.00;;;;;-143.90;100.00;75488.53;4839298;28;104284;-76
2024/01/01 09:06:51;;;;;;;;;11.25;9.75;;;;;-143.90;100.00;75515.41;4855917;28;102725;-75
2024/01/01 09:09:18;;;;;;;;;21.75;15.50;;;;;-143.90;100.00;75527.81;4852944;28;103000;-76
2024/01/01 09:11:47;;;;;;;;;9.75;8.00;;;;;-143.90;100.00;75529.91;4858992;28;103528;-76
2024/01/01 09:14:14;;;;;;;;;8.00;7.50;;;;;-143.90;100.00;75540.22;4874096;28;104100;-75
2024/01/01 09:16:40;;;;;;;;;9.00;6.25;;;;;-143.90;100.00;75565.03;4858795;28;103073;-73
2024/01/01 09:19:07;;;;;;;;;9.50;5.50;;;;;-143.90;100.00;75567.13;4874814;28;102318;-76
2024/01/01 09:21:34;;;;;;;;;6.00;5.50;;;;;-143.90;100.00;75554.72;4873525;28;103326;-76
2024/01/01 09:24:01;;;;;;;;;10.50;7.00;;;;;-143.90;100.00;75569.19;4868988;28;104189;-76
2024/01/01 09:26:32;;;;;;;;;11.25;9.50;;;;;-143.90;100.00;75560.91;4874099;28;102379;-76
2024/01/01 09:28:58;;;;;;;;;10.00;9.00;;;;;-143.90;100.00;75560.91;4876397;28;103169;-76
2024/01/01 09:31:26;;;;;;;;;9.50;9.00;;;;;-143.90;100.00;75562.97;4868033;28;103604;-75
2024/01/01 09:33:54;;;;;;;;;13.00;11.50;;;;;-143.90;100.00;75575.38;4859596;28;104535;-75
2024/01/01 09:36:21;;;;;;;;;22.25;18.00;;;;;-143.90;100.00;75577.44;4883297;28;102376;-75
2024/01/01 09:38:48;;;;;;;;;19.75;18.25;;;;;-143.90;100.00;75587.78;4865666;28;103530;-75
2024/01/01 09:41:14;;;;;;;;;24.00;20.25;;;;;-143.90;100.00;75577.44;4852784;28;102349;-75
2024/01/01 09:43:42;;;;;;;;;21.00;19.00;;;;;-143.90;100.00;75589.84;4870127;28;103841;-75
2024/01/01 09:46:10;;;;;;;;;21.00;20.25;;;;;-143.90;100.00;75579.53;4881040;28;102338;-76
2024/01/01 09:48:37;;;;;;;;;23.75;19.00;;;;;-143.90;100.00;75577.44;4863334;28;102174;-76
2024/01/01 09:51:04;;;;;;;;;24.75;21.25;;;;;-143.90;100.00;75602.25;4877710;28;102700;-75
2024/01/01 09:53:31;;;;;;;;;28.00;23.75;;;;;-143.90;100.00;75608.47;4845532;28;104220;-73
2024/01/01 10:09:57;;;;;;;;;10.00;10.00;;;;;-143.90;100.00;75649.81;4728285;28;103719;-73
2024/01/01 10:12:27;;;;;;;;;11.75;9.50;;;;;-143.90;100.00;75660.16;4877947;28;103022;-73
2024/01/01 10:14:57;;;;;;;;;13.25;10.00;;;;;-143.90;100.00;75672.56;4854093;28;103344;-72
2024/01/01 10:17:24;;;;;;;;;10.00;9.25;;;;;-143.90;100.00;75668.44;4844052;28;108714;-73
2024/01/01 10:19:55;;;;;;;;;9.50;6.00;;;;;-143.90;100.00;75670.50;4861629;28;102612;-73
2024/01/01 10:22:28;;;;;;;;;11.75;10.00;;;;;-143.90;100.00;75672.56;4865037;28;102189;-73
2024/01/01 10:25:09;;;;;;;;;13.00;11.00;;;;;-143.90;100.00;75676.69;4856368;28;102966;-74
2024/01/01 10:27:38;;;;;;;;;12.75;12.00;;;;;-143.90;100.00;75684.97;4832376;28;104291;-74
2024/01/01 10:30:05;;;;;;;;;8.25;6.00;;;;;-143.90;100.00;75705.66;4821622;28;103215;-74
2024/01/01 10:32:33;;;;;;;;;12.25;10.00;;;;;-143.90;100.00;75684.97;4836583;28;102525;-74
2024/01/01 10:35:03;;;;;;;;;9.00;8.00;;;;;-143.90;100.00;75668.44;4824654;28;102318;-74
2024/01/01 10:37:31;;;;;;;;;6.00;6.00;;;;;-143.90;100.00;75676.69;4853456;23;105173;-73
2024/01/01 10:40:05;;;;;;;;;8.00;7.00;;;;;-143.90;100.00;75660.16;4853553;28;103423;-74
2024/01/01 10:42:36;;;;;;;;;6.25;6.00;;;;;-143.90;100.00;75651.88;4878818;28;102151;-74
2024/01/01 10:45:05;;;;;;;;;4.25;3.00;;;;;-143.90;100.00;75625.00;4879158;28;104104;-74
2024/01/01 10:47:32;;;;;;;;;2.75;2.25;;;;;-143.90;100.00;75614.66;4880912;28;104156;-74
2024/01/01 10:50:20;;;;;;;;;8.75;6.00;;;;;-143.90;100.00;75602.25;4871133;28;102330;-73
2024/01/01 10:53:13;;;;;;;;;9.50;6.00;;;;;-143.90;100.00;75591.94;4879178;28;106069;-74
2024/01/01 10:55:58;;;;;;;;;4.00;4.00;;;;;-143.90;100.00;75579.53;4883619;28;102502;-73
2024/01/01 10:58:40;;;;;;;;;6.00;5.00;;;;;-143.90;100.00;75581.59;4879460;28;109092;-73
2024/01/01 11:01:15;;;;;;;;;4.50;4.50;;;;;-143.90;100.00;75575.38;4882525;28;103174;-74
2024/01/01 11:03:47;;;;;;;;;8.75;6.25;;;;;-143.90;100.00;75567.13;4871975;28;104616;-76